sensor_id;sensor_type;location;lat;lon;timestamp;P1;durP1;ratioP1;P2;durP2;ratioP2
317;SDS011;146;53.448;10.228;2023-04-01T00:01:09;6.00;;;5.50;;
317;SDS011;146;53.448;10.228;2023-04-01T00:03:42;5.20;;;4.40;;
317;SDS011;146;53.448;10.228;2023-04-01T00:06:16;6.20;;;4.37;;
317;SDS011;146;53.448;10.228;2023-04-01T00:08:44;7.73;;;4.83;;
317;SDS011;146;53.448;10.228;2023-04-01T00:11:11;5.83;;;4.80;;
317;SDS011;146;53.448;10.228;2023-04-01T00:13:44;4.80;;;4.20;;
317;SDS011;146;53.448;10.228;2023-04-01T00:16:14;6.93;;;5.17;;
317;SDS011;146;53.448;10.228;2023-04-01T00:18:46;7.53;;;4.70;;
317;SDS011;146;53.448;10.228;2023-04-01T00:21:13;6.53;;;4.27;;
317;SDS011;146;53.448;10.228;2023-04-01T00:23:49;4.60;;;4.20;;
317;SDS011;146;53.448;10.228;2023-04-01T00:26:17;6.07;;;4.10;;
317;SDS011;146;53.448;10.228;2023-04-01T00:28:46;4.37;;;4.00;;
317;SDS011;146;53.448;10.228;2023-04-01T00:31:13;6.70;;;4.27;;
317;SDS011;146;53.448;10.228;2023-04-01T00:33:40;5.60;;;4.00;;
317;SDS011;146;53.448;10.228;2023-04-01T00:36:12;5.83;;;4.30;;
317;SDS011;146;53.448;10.228;2023-04-01T00:38:41;6.70;;;3.90;;
317;SDS011;146;53.448;10.228;2023-04-01T00:41:11;4.70;;;4.27;;
317;SDS011;146;53.448;10.228;2023-04-01T00:43:44;9.87;;;4.17;;
317;SDS011;146;53.448;10.228;2023-04-01T00:46:20;5.33;;;4.40;;
317;SDS011;146;53.448;10.228;2023-04-01T00:48:48;4.67;;;4.10;;
317;SDS011;146;53.448;10.228;2023-04-01T00:51:21;5.27;;;4.77;;
317;SDS011;146;53.448;10.228;2023-04-01T00:53:52;4.60;;;4.10;;
317;SDS011;146;53.448;10.228;2023-04-01T00:56:24;6.17;;;4.73;;
317;SDS011;146;53.448;10.228;2023-04-01T00:58:57;4.70;;;3.90;;
317;SDS011;146;53.448;10.228;2023-04-01T01:01:30;4.83;;;4.17;;
317;SDS011;146;53.448;10.228;2023-04-01T01:03:58;4.50;;;4.10;;
317;SDS011;146;53.448;10.228;2023-04-01T01:06:33;5.43;;;4.27;;
317;SDS011;146;53.448;10.228;2023-04-01T01:09:26;4.60;;;4.20;;
317;SDS011;146;53.448;10.228;2023-04-01T01:12:00;6.50;;;4.50;;
317;SDS011;146;53.448;10.228;2023-04-01T01:14:35;4.83;;;4.40;;
317;SDS011;146;53.448;10.228;2023-04-01T01:17:19;4.90;;;4.40;;
317;SDS011;146;53.448;10.228;2023-04-01T01:20:14;7.63;;;4.87;;
317;SDS011;146;53.448;10.228;2023-04-01T01:26:27;4.73;;;4.20;;
317;SDS011;146;53.448;10.228;2023-04-01T01:32:41;4.40;;;3.87;;
317;SDS011;146;53.448;10.228;2023-04-01T01:35:42;4.93;;;3.87;;
317;SDS011;146;53.448;10.228;2023-04-01T01:38:13;5.70;;;4.13;;
317;SDS011;146;53.448;10.228;2023-04-01T01:40:46;3.60;;;3.30;;
317;SDS011;146;53.448;10.228;2023-04-01T01:43:17;4.33;;;3.93;;
317;SDS011;146;53.448;10.228;2023-04-01T01:45:49;5.20;;;4.80;;
317;SDS011;146;53.448;10.228;2023-04-01T01:48:23;6.07;;;3.93;;
317;SDS011;146;53.448;10.228;2023-04-01T01:50:54;4.93;;;4.43;;
317;SDS011;146;53.448;10.228;2023-04-01T01:53:21;5.90;;;4.60;;
317;SDS011;146;53.448;10.228;2023-04-01T01:55:48;7.13;;;4.60;;
317;SDS011;146;53.448;10.228;2023-04-01T01:58:16;4.23;;;3.93;;
317;SDS011;146;53.448;10.228;2023-04-01T02:00:46;8.00;;;4.43;;
317;SDS011;146;53.448;10.228;2023-04-01T02:03:16;5.67;;;4.10;;
317;SDS011;146;53.448;10.228;2023-04-01T02:05:45;4.90;;;3.90;;
317;SDS011;146;53.448;10.228;2023-04-01T02:08:15;7.13;;;4.20;;
317;SDS011;146;53.448;10.228;2023-04-01T02:10:50;3.87;;;3.57;;
317;SDS011;146;53.448;10.228;2023-04-01T02:13:23;6.77;;;4.53;;
317;SDS011;146;53.448;10.228;2023-04-01T02:15:54;7.90;;;4.20;;
317;SDS011;146;53.448;10.228;2023-04-01T02:18:25;4.10;;;3.50;;
317;SDS011;146;53.448;10.228;2023-04-01T02:20:54;3.90;;;3.50;;
317;SDS011;146;53.448;10.228;2023-04-01T02:23:27;3.67;;;3.23;;
317;SDS011;146;53.448;10.228;2023-04-01T02:25:55;3.07;;;2.87;;
317;SDS011;146;53.448;10.228;2023-04-01T02:28:22;4.00;;;3.67;;
317;SDS011;146;53.448;10.228;2023-04-01T02:30:50;5.20;;;3.93;;
317;SDS011;146;53.448;10.228;2023-04-01T02:33:20;5.03;;;3.50;;
317;SDS011;146;53.448;10.228;2023-04-01T02:35:47;3.50;;;3.20;;
317;SDS011;146;53.448;10.228;2023-04-01T02:38:14;5.10;;;3.43;;
317;SDS011;146;53.448;10.228;2023-04-01T02:40:44;7.37;;;3.20;;
317;SDS011;146;53.448;10.228;2023-04-01T02:43:22;4.00;;;3.60;;
317;SDS011;146;53.448;10.228;2023-04-01T02:45:49;4.73;;;3.77;;
317;SDS011;146;53.448;10.228;2023-04-01T02:48:22;8.87;;;3.97;;
317;SDS011;146;53.448;10.228;2023-04-01T02:50:52;6.70;;;3.60;;
317;SDS011;146;53.448;10.228;2023-04-01T02:53:24;4.40;;;3.30;;
317;SDS011;146;53.448;10.228;2023-04-01T02:55:52;3.97;;;3.17;;
317;SDS011;146;53.448;10.228;2023-04-01T02:58:20;5.13;;;3.80;;
317;SDS011;146;53.448;10.228;2023-04-01T03:00:46;6.50;;;3.77;;
317;SDS011;146;53.448;10.228;2023-04-01T03:03:15;3.70;;;3.20;;
317;SDS011;146;53.448;10.228;2023-04-01T03:05:48;4.03;;;3.30;;
317;SDS011;146;53.448;10.228;2023-04-01T03:08:18;6.77;;;3.77;;
317;SDS011;146;53.448;10.228;2023-04-01T03:10:52;3.77;;;3.47;;
317;SDS011;146;53.448;10.228;2023-04-01T03:13:19;6.67;;;3.67;;
317;SDS011;146;53.448;10.228;2023-04-01T03:15:54;3.90;;;3.50;;
317;SDS011;146;53.448;10.228;2023-04-01T03:18:24;4.50;;;4.10;;
317;SDS011;146;53.448;10.228;2023-04-01T03:20:51;4.13;;;3.67;;
317;SDS011;146;53.448;10.228;2023-04-01T03:23:18;4.70;;;3.30;;
317;SDS011;146;53.448;10.228;2023-04-01T03:25:50;4.60;;;3.50;;
317;SDS011;146;53.448;10.228;2023-04-01T03:28:24;5.40;;;2.73;;
317;SDS011;146;53.448;10.228;2023-04-01T03:30:54;3.70;;;3.30;;
317;SDS011;146;53.448;10.228;2023-04-01T03:33:24;3.77;;;3.47;;
317;SDS011;146;53.448;10.228;2023-04-01T03:35:50;3.70;;;2.77;;
317;SDS011;146;53.448;10.228;2023-04-01T03:38:18;4.40;;;3.10;;
317;SDS011;146;53.448;10.228;2023-04-01T03:40:44;3.57;;;3.27;;
317;SDS011;146;53.448;10.228;2023-04-01T03:43:13;4.90;;;3.80;;
317;SDS011;146;53.448;10.228;2023-04-01T03:45:43;4.93;;;3.67;;
317;SDS011;146;53.448;10.228;2023-04-01T03:48:10;3.80;;;3.50;;
317;SDS011;146;53.448;10.228;2023-04-01T03:50:40;5.87;;;3.23;;
317;SDS011;146;53.448;10.228;2023-04-01T03:53:07;3.20;;;2.90;;
317;SDS011;146;53.448;10.228;2023-04-01T03:55:38;4.70;;;3.40;;
317;SDS011;146;53.448;10.228;2023-04-01T03:58:08;4.30;;;3.23;;
317;SDS011;146;53.448;10.228;2023-04-01T04:00:42;4.77;;;3.77;;
317;SDS011;146;53.448;10.228;2023-04-01T04:03:27;5.27;;;3.70;;
317;SDS011;146;53.448;10.228;2023-04-01T04:05:54;4.90;;;3.63;;
317;SDS011;146;53.448;10.228;2023-04-01T04:08:23;4.30;;;3.90;;
317;SDS011;146;53.448;10.228;2023-04-01T04:10:54;6.20;;;5.70;;
317;SDS011;146;53.448;10.228;2023-04-01T04:13:28;4.50;;;3.30;;
317;SDS011;146;53.448;10.228;2023-04-01T04:15:55;4.53;;;4.13;;
317;SDS011;146;53.448;10.228;2023-04-01T04:18:29;7.60;;;4.03;;
317;SDS011;146;53.448;10.228;2023-04-01T04:20:59;5.40;;;4.03;;
317;SDS011;146;53.448;10.228;2023-04-01T04:23:26;5.20;;;3.77;;
317;SDS011;146;53.448;10.228;2023-04-01T04:25:55;8.33;;;4.80;;
317;SDS011;146;53.448;10.228;2023-04-01T04:28:23;4.73;;;3.77;;
317;SDS011;146;53.448;10.228;2023-04-01T04:30:57;5.33;;;4.20;;
317;SDS011;146;53.448;10.228;2023-04-01T04:33:30;3.97;;;3.53;;
317;SDS011;146;53.448;10.228;2023-04-01T04:35:57;4.60;;;3.97;;
317;SDS011;146;53.448;10.228;2023-04-01T04:38:25;4.13;;;3.73;;
317;SDS011;146;53.448;10.228;2023-04-01T04:41:01;4.00;;;3.60;;
317;SDS011;146;53.448;10.228;2023-04-01T04:43:28;4.40;;;4.00;;
317;SDS011;146;53.448;10.228;2023-04-01T04:45:59;4.00;;;3.33;;
317;SDS011;146;53.448;10.228;2023-04-01T04:48:30;4.20;;;3.80;;
317;SDS011;146;53.448;10.228;2023-04-01T04:50:56;3.83;;;3.53;;
317;SDS011;146;53.448;10.228;2023-04-01T04:53:26;7.80;;;4.40;;
317;SDS011;146;53.448;10.228;2023-04-01T04:55:53;4.67;;;4.17;;
317;SDS011;146;53.448;10.228;2023-04-01T04:58:20;4.10;;;3.70;;
317;SDS011;146;53.448;10.228;2023-04-01T05:00:53;9.20;;;4.00;;
317;SDS011;146;53.448;10.228;2023-04-01T05:03:32;4.30;;;3.20;;
317;SDS011;146;53.448;10.228;2023-04-01T05:06:02;7.93;;;3.47;;
317;SDS011;146;53.448;10.228;2023-04-01T05:08:30;5.63;;;5.13;;
317;SDS011;146;53.448;10.228;2023-04-01T05:11:15;5.13;;;3.20;;
317;SDS011;146;53.448;10.228;2023-04-01T05:13:45;4.53;;;4.13;;
317;SDS011;146;53.448;10.228;2023-04-01T05:16:13;5.37;;;4.53;;
317;SDS011;146;53.448;10.228;2023-04-01T05:18:45;3.73;;;3.33;;
317;SDS011;146;53.448;10.228;2023-04-01T05:21:13;6.50;;;4.77;;
317;SDS011;146;53.448;10.228;2023-04-01T05:23:50;4.33;;;3.93;;
317;SDS011;146;53.448;10.228;2023-04-01T05:26:17;9.33;;;3.83;;
317;SDS011;146;53.448;10.228;2023-04-01T05:28:46;6.87;;;4.13;;
317;SDS011;146;53.448;10.228;2023-04-01T05:31:13;4.30;;;3.90;;
317;SDS011;146;53.448;10.228;2023-04-01T05:33:39;5.30;;;3.57;;
317;SDS011;146;53.448;10.228;2023-04-01T05:36:12;3.97;;;3.67;;
317;SDS011;146;53.448;10.228;2023-04-01T05:38:43;3.60;;;3.30;;
317;SDS011;146;53.448;10.228;2023-04-01T05:41:10;4.47;;;3.77;;
317;SDS011;146;53.448;10.228;2023-04-01T05:43:47;7.27;;;4.77;;
317;SDS011;146;53.448;10.228;2023-04-01T05:46:13;5.23;;;4.73;;
317;SDS011;146;53.448;10.228;2023-04-01T05:48:43;6.37;;;4.30;;
317;SDS011;146;53.448;10.228;2023-04-01T05:51:13;5.63;;;4.80;;
317;SDS011;146;53.448;10.228;2023-04-01T05:53:40;6.43;;;5.20;;
317;SDS011;146;53.448;10.228;2023-04-01T05:56:07;7.30;;;4.87;;
317;SDS011;146;53.448;10.228;2023-04-01T05:58:38;4.33;;;3.93;;
317;SDS011;146;53.448;10.228;2023-04-01T06:03:49;1.63;;;1.10;;
317;SDS011;146;53.448;10.228;2023-04-01T06:06:20;1.20;;;1.10;;
317;SDS011;146;53.448;10.228;2023-04-01T06:08:53;1.77;;;1.67;;
317;SDS011;146;53.448;10.228;2023-04-01T06:11:28;2.60;;;2.27;;
317;SDS011;146;53.448;10.228;2023-04-01T06:14:07;2.20;;;2.00;;
317;SDS011;146;53.448;10.228;2023-04-01T06:16:54;1.30;;;1.20;;
317;SDS011;146;53.448;10.228;2023-04-01T06:19:33;2.10;;;1.90;;
317;SDS011;146;53.448;10.228;2023-04-01T06:22:19;1.43;;;1.33;;
317;SDS011;146;53.448;10.228;2023-04-01T06:25:16;1.00;;;1.00;;
317;SDS011;146;53.448;10.228;2023-04-01T06:28:06;1.20;;;1.10;;
317;SDS011;146;53.448;10.228;2023-04-01T06:31:00;1.10;;;1.00;;
317;SDS011;146;53.448;10.228;2023-04-01T06:33:41;1.60;;;1.50;;
317;SDS011;146;53.448;10.228;2023-04-01T06:39:31;3.63;;;1.40;;
317;SDS011;146;53.448;10.228;2023-04-01T06:45:31;1.20;;;1.10;;
317;SDS011;146;53.448;10.228;2023-04-01T06:50:58;1.57;;;1.47;;
317;SDS011;146;53.448;10.228;2023-04-01T06:53:36;1.47;;;1.37;;
317;SDS011;146;53.448;10.228;2023-04-01T06:56:10;1.43;;;1.33;;
317;SDS011;146;53.448;10.228;2023-04-01T06:58:46;1.30;;;1.20;;
317;SDS011;146;53.448;10.228;2023-04-01T07:01:18;1.17;;;1.00;;
317;SDS011;146;53.448;10.228;2023-04-01T07:03:55;0.80;;;0.80;;
317;SDS011;146;53.448;10.228;2023-04-01T07:06:30;1.50;;;1.40;;
317;SDS011;146;53.448;10.228;2023-04-01T07:08:58;1.47;;;1.37;;
317;SDS011;146;53.448;10.228;2023-04-01T07:11:34;1.53;;;1.27;;
317;SDS011;146;53.448;10.228;2023-04-01T07:14:03;1.60;;;1.50;;
317;SDS011;146;53.448;10.228;2023-04-01T07:16:38;1.20;;;1.10;;
317;SDS011;146;53.448;10.228;2023-04-01T07:19:09;1.00;;;0.83;;
317;SDS011;146;53.448;10.228;2023-04-01T07:21:43;1.63;;;1.00;;
317;SDS011;146;53.448;10.228;2023-04-01T07:24:14;1.40;;;1.20;;
317;SDS011;146;53.448;10.228;2023-04-01T07:26:45;0.93;;;0.70;;
317;SDS011;146;53.448;10.228;2023-04-01T07:29:13;0.70;;;0.70;;
317;SDS011;146;53.448;10.228;2023-04-01T07:34:44;0.70;;;0.70;;
317;SDS011;146;53.448;10.228;2023-04-01T07:37:31;0.73;;;0.60;;
317;SDS011;146;53.448;10.228;2023-04-01T07:40:09;0.70;;;0.70;;
317;SDS011;146;53.448;10.228;2023-04-01T07:42:47;0.80;;;0.80;;
317;SDS011;146;53.448;10.228;2023-04-01T07:45:42;0.50;;;0.50;;
317;SDS011;146;53.448;10.228;2023-04-01T07:48:19;1.13;;;1.03;;
317;SDS011;146;53.448;10.228;2023-04-01T07:50:58;1.93;;;1.83;;
317;SDS011;146;53.448;10.228;2023-04-01T07:53:30;0.73;;;0.70;;
317;SDS011;146;53.448;10.228;2023-04-01T07:56:08;0.80;;;0.70;;
317;SDS011;146;53.448;10.228;2023-04-01T07:58:48;0.70;;;0.70;;
317;SDS011;146;53.448;10.228;2023-04-01T08:01:27;0.70;;;0.70;;
317;SDS011;146;53.448;10.228;2023-04-01T08:04:08;0.90;;;0.90;;
317;SDS011;146;53.448;10.228;2023-04-01T08:06:50;1.27;;;1.03;;
317;SDS011;146;53.448;10.228;2023-04-01T08:09:26;1.30;;;0.97;;
317;SDS011;146;53.448;10.228;2023-04-01T08:12:02;0.70;;;0.70;;
317;SDS011;146;53.448;10.228;2023-04-01T08:14:44;0.87;;;0.87;;
317;SDS011;146;53.448;10.228;2023-04-01T08:17:19;0.90;;;0.80;;
317;SDS011;146;53.448;10.228;2023-04-01T08:19:56;0.70;;;0.70;;
317;SDS011;146;53.448;10.228;2023-04-01T08:22:34;0.80;;;0.80;;
317;SDS011;146;53.448;10.228;2023-04-01T08:25:09;1.50;;;0.70;;
317;SDS011;146;53.448;10.228;2023-04-01T08:27:43;0.60;;;0.60;;
317;SDS011;146;53.448;10.228;2023-04-01T08:30:19;0.90;;;0.90;;
317;SDS011;146;53.448;10.228;2023-04-01T08:32:56;1.50;;;1.40;;
317;SDS011;146;53.448;10.228;2023-04-01T08:35:46;1.33;;;1.23;;
317;SDS011;146;53.448;10.228;2023-04-01T08:38:20;1.07;;;0.80;;
317;SDS011;146;53.448;10.228;2023-04-01T08:40:57;0.90;;;0.90;;
317;SDS011;146;53.448;10.228;2023-04-01T08:43:29;0.50;;;0.50;;
317;SDS011;146;53.448;10.228;2023-04-01T08:46:27;0.60;;;0.60;;
317;SDS011;146;53.448;10.228;2023-04-01T08:49:26;0.80;;;0.80;;
317;SDS011;146;53.448;10.228;2023-04-01T08:52:28;0.83;;;0.70;;
317;SDS011;146;53.448;10.228;2023-04-01T08:58:01;1.70;;;0.80;;
317;SDS011;146;53.448;10.228;2023-04-01T09:01:01;0.90;;;0.50;;
317;SDS011;146;53.448;10.228;2023-04-01T09:06:40;0.67;;;0.67;;
317;SDS011;146;53.448;10.228;2023-04-01T09:09:35;0.70;;;0.70;;
317;SDS011;146;53.448;10.228;2023-04-01T09:12:41;0.83;;;0.83;;
317;SDS011;146;53.448;10.228;2023-04-01T09:18:42;0.83;;;0.70;;
317;SDS011;146;53.448;10.228;2023-04-01T09:21:26;0.70;;;0.70;;
317;SDS011;146;53.448;10.228;2023-04-01T09:24:20;2.00;;;0.90;;
317;SDS011;146;53.448;10.228;2023-04-01T09:27:11;0.70;;;0.70;;
317;SDS011;146;53.448;10.228;2023-04-01T09:33:28;1.10;;;1.00;;
317;SDS011;146;53.448;10.228;2023-04-01T09:40:37;0.70;;;0.70;;
317;SDS011;146;53.448;10.228;2023-04-01T09:43:38;0.70;;;0.70;;
317;SDS011;146;53.448;10.228;2023-04-01T09:46:24;0.50;;;0.50;;
317;SDS011;146;53.448;10.228;2023-04-01T09:52:53;1.33;;;0.70;;
317;SDS011;146;53.448;10.228;2023-04-01T10:17:56;0.60;;;0.60;;
317;SDS011;146;53.448;10.228;2023-04-01T10:27:24;0.60;;;0.60;;
317;SDS011;146;53.448;10.228;2023-04-01T10:36:55;0.70;;;0.70;;
317;SDS011;146;53.448;10.228;2023-04-01T10:55:54;2.40;;;1.00;;
317;SDS011;146;53.448;10.228;2023-04-01T10:58:55;0.70;;;0.70;;
317;SDS011;146;53.448;10.228;2023-04-01T11:02:08;0.60;;;0.60;;
317;SDS011;146;53.448;10.228;2023-04-01T11:08:23;0.97;;;0.67;;
317;SDS011;146;53.448;10.228;2023-04-01T11:11:26;2.40;;;0.80;;
317;SDS011;146;53.448;10.228;2023-04-01T11:17:35;0.50;;;0.50;;
317;SDS011;146;53.448;10.228;2023-04-01T11:20:35;0.77;;;0.77;;
317;SDS011;146;53.448;10.228;2023-04-01T11:23:32;1.80;;;0.60;;
317;SDS011;146;53.448;10.228;2023-04-01T11:26:14;0.60;;;0.60;;
317;SDS011;146;53.448;10.228;2023-04-01T11:32:02;0.93;;;0.93;;
317;SDS011;146;53.448;10.228;2023-04-01T11:34:55;0.87;;;0.83;;
317;SDS011;146;53.448;10.228;2023-04-01T11:37:36;0.90;;;0.80;;
317;SDS011;146;53.448;10.228;2023-04-01T11:40:17;1.10;;;1.00;;
317;SDS011;146;53.448;10.228;2023-04-01T11:42:54;0.80;;;0.80;;
317;SDS011;146;53.448;10.228;2023-04-01T11:45:36;1.10;;;1.10;;
317;SDS011;146;53.448;10.228;2023-04-01T11:51:03;2.20;;;1.43;;
317;SDS011;146;53.448;10.228;2023-04-01T11:53:47;1.30;;;1.20;;
317;SDS011;146;53.448;10.228;2023-04-01T11:56:29;1.30;;;1.20;;
317;SDS011;146;53.448;10.228;2023-04-01T11:59:31;1.13;;;1.03;;
317;SDS011;146;53.448;10.228;2023-04-01T12:02:44;1.90;;;1.70;;
317;SDS011;146;53.448;10.228;2023-04-01T12:05:28;2.37;;;1.67;;
317;SDS011;146;53.448;10.228;2023-04-01T12:08:19;2.33;;;2.13;;
317;SDS011;146;53.448;10.228;2023-04-01T12:10:58;3.73;;;2.43;;
317;SDS011;146;53.448;10.228;2023-04-01T12:13:35;2.13;;;1.93;;
317;SDS011;146;53.448;10.228;2023-04-01T12:19:17;2.50;;;2.30;;
317;SDS011;146;53.448;10.228;2023-04-01T12:22:02;2.47;;;1.67;;
317;SDS011;146;53.448;10.228;2023-04-01T12:24:50;2.37;;;2.03;;
317;SDS011;146;53.448;10.228;2023-04-01T12:27:38;3.00;;;2.80;;
317;SDS011;146;53.448;10.228;2023-04-01T12:33:17;2.97;;;2.67;;
317;SDS011;146;53.448;10.228;2023-04-01T12:36:00;2.47;;;2.27;;
317;SDS011;146;53.448;10.228;2023-04-01T12:38:41;2.37;;;2.17;;
317;SDS011;146;53.448;10.228;2023-04-01T12:41:38;2.90;;;2.40;;
317;SDS011;146;53.448;10.228;2023-04-01T12:44:23;2.60;;;2.40;;
317;SDS011;146;53.448;10.228;2023-04-01T12:47:23;2.93;;;1.83;;
317;SDS011;146;53.448;10.228;2023-04-01T12:52:58;3.23;;;2.93;;
317;SDS011;146;53.448;10.228;2023-04-01T12:55:41;3.50;;;2.90;;
317;SDS011;146;53.448;10.228;2023-04-01T13:01:25;2.80;;;2.10;;
317;SDS011;146;53.448;10.228;2023-04-01T13:07:13;3.03;;;2.83;;
317;SDS011;146;53.448;10.228;2023-04-01T13:09:57;3.30;;;2.80;;
317;SDS011;146;53.448;10.228;2023-04-01T13:12:36;2.67;;;2.40;;
317;SDS011;146;53.448;10.228;2023-04-01T13:15:26;2.53;;;2.33;;
317;SDS011;146;53.448;10.228;2023-04-01T13:17:59;2.63;;;2.43;;
317;SDS011;146;53.448;10.228;2023-04-01T13:20:36;3.53;;;2.70;;
317;SDS011;146;53.448;10.228;2023-04-01T13:23:16;2.93;;;2.50;;
317;SDS011;146;53.448;10.228;2023-04-01T13:26:04;4.20;;;2.47;;
317;SDS011;146;53.448;10.228;2023-04-01T13:28:40;2.80;;;2.60;;
317;SDS011;146;53.448;10.228;2023-04-01T13:31:19;4.17;;;3.37;;
317;SDS011;146;53.448;10.228;2023-04-01T13:34:17;3.07;;;2.77;;
317;SDS011;146;53.448;10.228;2023-04-01T13:37:05;3.00;;;2.40;;
317;SDS011;146;53.448;10.228;2023-04-01T13:39:53;2.50;;;1.90;;
317;SDS011;146;53.448;10.228;2023-04-01T13:42:43;2.37;;;2.17;;
317;SDS011;146;53.448;10.228;2023-04-01T13:45:15;1.90;;;1.80;;
317;SDS011;146;53.448;10.228;2023-04-01T13:47:51;2.33;;;2.03;;
317;SDS011;146;53.448;10.228;2023-04-01T13:50:35;2.40;;;1.80;;
317;SDS011;146;53.448;10.228;2023-04-01T13:56:39;1.93;;;1.73;;
317;SDS011;146;53.448;10.228;2023-04-01T14:05:54;2.23;;;2.00;;
317;SDS011;146;53.448;10.228;2023-04-01T14:11:48;1.90;;;1.57;;
317;SDS011;146;53.448;10.228;2023-04-01T14:14:23;2.10;;;1.57;;
317;SDS011;146;53.448;10.228;2023-04-01T14:17:14;2.40;;;2.20;;
317;SDS011;146;53.448;10.228;2023-04-01T14:22:58;2.53;;;2.30;;
317;SDS011;146;53.448;10.228;2023-04-01T14:26:04;2.30;;;2.10;;
317;SDS011;146;53.448;10.228;2023-04-01T14:28:51;2.50;;;2.30;;
317;SDS011;146;53.448;10.228;2023-04-01T14:31:47;2.60;;;2.40;;
317;SDS011;146;53.448;10.228;2023-04-01T14:34:37;3.00;;;2.50;;
317;SDS011;146;53.448;10.228;2023-04-01T14:37:30;3.60;;;2.70;;
317;SDS011;146;53.448;10.228;2023-04-01T14:40:27;2.53;;;2.30;;
317;SDS011;146;53.448;10.228;2023-04-01T14:46:24;3.50;;;3.20;;
317;SDS011;146;53.448;10.228;2023-04-01T14:49:14;3.00;;;2.70;;
317;SDS011;146;53.448;10.228;2023-04-01T14:51:48;3.57;;;2.80;;
317;SDS011;146;53.448;10.228;2023-04-01T14:54:22;2.70;;;2.50;;
317;SDS011;146;53.448;10.228;2023-04-01T14:57:02;3.23;;;2.93;;
317;SDS011;146;53.448;10.228;2023-04-01T14:59:35;5.00;;;3.20;;
317;SDS011;146;53.448;10.228;2023-04-01T15:02:16;3.80;;;3.50;;
317;SDS011;146;53.448;10.228;2023-04-01T15:05:03;3.73;;;3.33;;
317;SDS011;146;53.448;10.228;2023-04-01T15:10:48;3.40;;;3.10;;
317;SDS011;146;53.448;10.228;2023-04-01T15:13:48;6.70;;;2.83;;
317;SDS011;146;53.448;10.228;2023-04-01T15:16:39;3.30;;;3.03;;
317;SDS011;146;53.448;10.228;2023-04-01T15:19:15;2.90;;;2.60;;
317;SDS011;146;53.448;10.228;2023-04-01T15:22:02;3.00;;;2.80;;
317;SDS011;146;53.448;10.228;2023-04-01T15:25:00;3.50;;;3.00;;
317;SDS011;146;53.448;10.228;2023-04-01T15:27:42;2.97;;;2.47;;
317;SDS011;146;53.448;10.228;2023-04-01T15:30:18;3.60;;;3.13;;
317;SDS011;146;53.448;10.228;2023-04-01T15:33:12;3.83;;;3.20;;
317;SDS011;146;53.448;10.228;2023-04-01T15:35:58;4.20;;;3.80;;
317;SDS011;146;53.448;10.228;2023-04-01T15:38:32;3.97;;;3.47;;
317;SDS011;146;53.448;10.228;2023-04-01T15:41:03;6.10;;;3.87;;
317;SDS011;146;53.448;10.228;2023-04-01T15:43:40;3.80;;;2.90;;
317;SDS011;146;53.448;10.228;2023-04-01T15:46:14;3.57;;;3.27;;
317;SDS011;146;53.448;10.228;2023-04-01T15:49:10;2.77;;;2.53;;
317;SDS011;146;53.448;10.228;2023-04-01T15:51:56;5.13;;;2.90;;
317;SDS011;146;53.448;10.228;2023-04-01T15:54:37;3.13;;;2.83;;
317;SDS011;146;53.448;10.228;2023-04-01T15:57:28;4.13;;;3.60;;
317;SDS011;146;53.448;10.228;2023-04-01T16:00:22;6.17;;;3.30;;
317;SDS011;146;53.448;10.228;2023-04-01T16:02:57;4.63;;;3.00;;
317;SDS011;146;53.448;10.228;2023-04-01T16:06:01;7.90;;;3.67;;
317;SDS011;146;53.448;10.228;2023-04-01T16:08:52;4.03;;;3.07;;
317;SDS011;146;53.448;10.228;2023-04-01T16:11:46;3.63;;;3.03;;
317;SDS011;146;53.448;10.228;2023-04-01T16:14:25;4.50;;;3.27;;
317;SDS011;146;53.448;10.228;2023-04-01T16:17:03;3.87;;;3.40;;
317;SDS011;146;53.448;10.228;2023-04-01T16:19:41;5.63;;;3.20;;
317;SDS011;146;53.448;10.228;2023-04-01T16:22:19;3.53;;;3.23;;
317;SDS011;146;53.448;10.228;2023-04-01T16:24:53;3.73;;;3.43;;
317;SDS011;146;53.448;10.228;2023-04-01T16:27:27;3.80;;;3.40;;
317;SDS011;146;53.448;10.228;2023-04-01T16:30:00;4.00;;;3.60;;
317;SDS011;146;53.448;10.228;2023-04-01T16:32:43;4.70;;;3.70;;
317;SDS011;146;53.448;10.228;2023-04-01T16:35:28;5.00;;;3.50;;
317;SDS011;146;53.448;10.228;2023-04-01T16:38:03;4.73;;;4.23;;
317;SDS011;146;53.448;10.228;2023-04-01T16:40:42;3.67;;;3.37;;
317;SDS011;146;53.448;10.228;2023-04-01T16:43:18;4.60;;;4.20;;
317;SDS011;146;53.448;10.228;2023-04-01T16:46:05;4.03;;;3.50;;
317;SDS011;146;53.448;10.228;2023-04-01T16:48:49;3.97;;;3.13;;
317;SDS011;146;53.448;10.228;2023-04-01T16:51:24;3.00;;;2.80;;
317;SDS011;146;53.448;10.228;2023-04-01T16:54:02;3.57;;;3.10;;
317;SDS011;146;53.448;10.228;2023-04-01T16:56:38;3.83;;;2.30;;
317;SDS011;146;53.448;10.228;2023-04-01T16:59:14;4.20;;;3.03;;
317;SDS011;146;53.448;10.228;2023-04-01T17:01:48;4.67;;;3.47;;
317;SDS011;146;53.448;10.228;2023-04-01T17:04:19;3.77;;;3.17;;
317;SDS011;146;53.448;10.228;2023-04-01T17:07:01;3.93;;;3.53;;
317;SDS011;146;53.448;10.228;2023-04-01T17:09:41;3.93;;;3.53;;
317;SDS011;146;53.448;10.228;2023-04-01T17:12:19;4.60;;;3.67;;
317;SDS011;146;53.448;10.228;2023-04-01T17:14:52;4.73;;;3.00;;
317;SDS011;146;53.448;10.228;2023-04-01T17:17:29;4.03;;;3.10;;
317;SDS011;146;53.448;10.228;2023-04-01T17:20:11;6.70;;;3.83;;
317;SDS011;146;53.448;10.228;2023-04-01T17:22:53;3.50;;;3.20;;
317;SDS011;146;53.448;10.228;2023-04-01T17:25:31;4.33;;;3.60;;
317;SDS011;146;53.448;10.228;2023-04-01T17:28:08;4.10;;;3.57;;
317;SDS011;146;53.448;10.228;2023-04-01T17:30:46;4.93;;;4.43;;
317;SDS011;146;53.448;10.228;2023-04-01T17:33:28;5.40;;;3.80;;
317;SDS011;146;53.448;10.228;2023-04-01T17:36:16;4.70;;;3.77;;
317;SDS011;146;53.448;10.228;2023-04-01T17:38:59;4.53;;;3.63;;
317;SDS011;146;53.448;10.228;2023-04-01T17:41:37;4.47;;;3.47;;
317;SDS011;146;53.448;10.228;2023-04-01T17:44:18;4.60;;;3.40;;
317;SDS011;146;53.448;10.228;2023-04-01T17:47:06;3.23;;;3.03;;
317;SDS011;146;53.448;10.228;2023-04-01T17:49:45;3.83;;;3.33;;
317;SDS011;146;53.448;10.228;2023-04-01T17:52:20;4.73;;;3.40;;
317;SDS011;146;53.448;10.228;2023-04-01T17:54:57;4.47;;;3.93;;
317;SDS011;146;53.448;10.228;2023-04-01T17:57:51;7.27;;;4.20;;
317;SDS011;146;53.448;10.228;2023-04-01T18:00:24;4.00;;;3.33;;
317;SDS011;146;53.448;10.228;2023-04-01T18:02:59;4.27;;;3.87;;
317;SDS011;146;53.448;10.228;2023-04-01T18:05:35;5.07;;;3.93;;
317;SDS011;146;53.448;10.228;2023-04-01T18:08:28;6.30;;;4.50;;
317;SDS011;146;53.448;10.228;2023-04-01T18:11:13;5.40;;;4.00;;
317;SDS011;146;53.448;10.228;2023-04-01T18:13:51;4.03;;;3.23;;
317;SDS011;146;53.448;10.228;2023-04-01T18:16:47;4.10;;;3.33;;
317;SDS011;146;53.448;10.228;2023-04-01T18:19:27;5.20;;;4.03;;
317;SDS011;146;53.448;10.228;2023-04-01T18:22:07;4.90;;;4.30;;
317;SDS011;146;53.448;10.228;2023-04-01T18:24:42;4.33;;;3.70;;
317;SDS011;146;53.448;10.228;2023-04-01T18:27:16;4.40;;;3.83;;
317;SDS011;146;53.448;10.228;2023-04-01T18:29:48;4.03;;;3.23;;
317;SDS011;146;53.448;10.228;2023-04-01T18:32:25;6.63;;;3.30;;
317;SDS011;146;53.448;10.228;2023-04-01T18:34:59;5.17;;;3.60;;
317;SDS011;146;53.448;10.228;2023-04-01T18:37:46;3.27;;;3.00;;
317;SDS011;146;53.448;10.228;2023-04-01T18:40:19;4.17;;;3.30;;
317;SDS011;146;53.448;10.228;2023-04-01T18:42:55;4.23;;;3.20;;
317;SDS011;146;53.448;10.228;2023-04-01T18:45:37;3.30;;;3.00;;
317;SDS011;146;53.448;10.228;2023-04-01T18:48:30;4.80;;;3.63;;
317;SDS011;146;53.448;10.228;2023-04-01T18:51:10;7.43;;;3.20;;
317;SDS011;146;53.448;10.228;2023-04-01T18:53:41;3.50;;;3.20;;
317;SDS011;146;53.448;10.228;2023-04-01T18:56:15;3.70;;;3.50;;
317;SDS011;146;53.448;10.228;2023-04-01T18:58:58;4.80;;;3.30;;
317;SDS011;146;53.448;10.228;2023-04-01T19:01:39;4.20;;;3.37;;
317;SDS011;146;53.448;10.228;2023-04-01T19:04:12;3.40;;;3.20;;